Time;durP1;ratioP1;P1;durP2;ratioP2;P2;SDS_P1;SDS_P2;PMS_P1;PMS_P2;Temp;Humidity;BMP_temperature;BMP_pressure;BME280_temperature;BME280_humidity;BME280_pressure;Samples;Min_cycle;Max_cycle;Signal;HPM_P1;HPM_P2
2021/01/06 00:00:08;;;;;;;0.63;0.20;;;4.90;99.90;;;;;;4971412;28;20130;-55
2021/01/06 00:02:38;;;;;;;1.08;0.30;;;4.90;99.90;;;;;;4971298;28;20402;-51
2021/01/06 00:05:10;;;;;;;0.50;0.20;;;4.90;99.90;;;;;;4971227;28;20039;-55
2021/01/06 00:07:41;;;;;;;0.85;0.20;;;4.90;99.90;;;;;;4983340;28;20100;-53
2021/01/06 00:10:09;;;;;;;0.55;0.20;;;4.90;99.90;;;;;;4990056;28;20038;-57
2021/01/06 00:12:34;;;;;;;0.70;0.20;;;4.90;99.90;;;;;;4989472;28;20057;-57
2021/01/06 00:15:00;;;;;;;0.50;0.20;;;4.90;99.90;;;;;;4989648;28;20030;-59
2021/01/06 00:17:26;;;;;;;1.27;0.22;;;4.80;99.90;;;;;;4990632;28;20475;-52
2021/01/06 00:19:51;;;;;;;0.85;0.30;;;4.90;99.90;;;;;;4990521;28;20040;-58
2021/01/06 00:22:17;;;;;;;0.88;0.10;;;4.80;99.90;;;;;;4985587;28;20043;-56
2021/01/06 00:24:43;;;;;;;0.68;0.13;;;4.80;99.90;;;;;;4972390;28;20100;-58
2021/01/06 00:27:08;;;;;;;0.68;0.10;;;4.80;99.90;;;;;;4984869;28;20034;-54
2021/01/06 00:29:34;;;;;;;0.63;0.10;;;4.80;99.90;;;;;;4975229;28;20503;-51
2021/01/06 00:32:00;;;;;;;0.38;0.10;;;4.80;99.90;;;;;;4970690;28;20325;-54
2021/01/06 00:34:26;;;;;;;0.40;0.05;;;4.80;99.90;;;;;;4981367;28;20087;-60
2021/01/06 00:36:51;;;;;;;0.43;0.05;;;4.80;99.90;;;;;;4989619;28;20050;-58
2021/01/06 00:39:17;;;;;;;0.70;0.10;;;4.80;99.90;;;;;;4989185;28;20045;-61
2021/01/06 00:41:43;;;;;;;1.08;0.00;;;4.80;99.90;;;;;;4989951;28;20340;-58
2021/01/06 00:44:09;;;;;;;0.17;0.00;;;4.80;99.90;;;;;;4990008;28;20060;-57
2021/01/06 00:46:36;;;;;;;0.35;0.05;;;4.70;99.90;;;;;;4990158;28;20144;-52
2021/01/06 00:49:04;;;;;;;0.88;0.10;;;4.70;99.90;;;;;;4990167;28;20100;-55
2021/01/06 00:51:31;;;;;;;0.20;0.00;;;4.60;99.90;;;;;;4989737;28;20071;-52
2021/01/06 00:53:56;;;;;;;0.93;0.15;;;4.60;99.90;;;;;;4987624;28;20065;-56
2021/01/06 00:56:33;;;;;;;0.85;0.10;;;4.60;99.90;;;;;;4989470;28;20178;-58
2021/01/06 00:58:59;;;;;;;0.40;0.10;;;4.60;99.90;;;;;;4988729;28;20092;-56
2021/01/06 01:01:27;;;;;;;1.85;0.00;;;4.60;99.90;;;;;;4989041;28;20578;-57
2021/01/06 01:03:53;;;;;;;0.60;0.20;;;4.60;99.90;;;;;;4989620;28;20490;-48
2021/01/06 01:06:27;;;;;;;0.40;0.10;;;4.50;99.90;;;;;;4988277;28;20561;-56
2021/01/06 01:08:54;;;;;;;0.98;0.10;;;4.60;99.90;;;;;;4989570;28;20121;-60
2021/01/06 01:11:23;;;;;;;0.22;0.10;;;4.50;99.90;;;;;;4980034;28;20097;-56
2021/01/06 01:13:51;;;;;;;1.65;0.10;;;4.50;99.90;;;;;;4974784;28;20046;-56
2021/01/06 01:16:17;;;;;;;0.63;0.00;;;4.50;99.90;;;;;;4989645;28;20430;-55
2021/01/06 01:18:43;;;;;;;0.00;0.00;;;4.50;99.90;;;;;;4988920;28;20026;-52
2021/01/06 01:21:09;;;;;;;0.20;0.00;;;4.40;99.90;;;;;;4989927;28;20088;-52
2021/01/06 01:23:34;;;;;;;0.57;0.00;;;4.40;99.90;;;;;;4988491;28;20525;-53
2021/01/06 01:26:01;;;;;;;0.10;0.00;;;4.40;99.90;;;;;;4991635;28;20026;-57
2021/01/06 01:28:28;;;;;;;0.00;0.00;;;4.40;99.90;;;;;;4990907;28;20041;-58
2021/01/06 01:30:55;;;;;;;0.15;0.00;;;4.40;99.90;;;;;;4989697;28;20056;-56
2021/01/06 01:33:23;;;;;;;0.22;0.05;;;4.40;99.90;;;;;;4989115;28;20026;-53
2021/01/06 01:35:49;;;;;;;0.20;0.00;;;4.40;99.90;;;;;;4986500;28;20042;-52
2021/01/06 01:38:25;;;;;;;1.25;0.08;;;4.40;99.90;;;;;;4989497;28;20027;-57
2021/01/06 01:41:00;;;;;;;0.00;0.00;;;4.30;99.90;;;;;;4989192;28;20035;-57
2021/01/06 01:43:27;;;;;;;0.30;0.00;;;4.40;99.90;;;;;;4989385;28;20060;-55
2021/01/06 01:45:53;;;;;;;0.60;0.00;;;4.30;99.90;;;;;;4988230;28;20038;-55
2021/01/06 01:48:42;;;;;;;0.50;0.00;;;4.30;99.90;;;;;;4993267;28;20099;-54
2021/01/06 01:51:40;;;;;;;0.25;0.00;;;4.30;99.90;;;;;;4993066;28;20521;-53
2021/01/06 01:54:12;;;;;;;1.08;0.00;;;4.30;99.90;;;;;;4993169;28;20053;-51
2021/01/06 01:56:42;;;;;;;0.82;0.00;;;4.30;99.90;;;;;;4993338;28;20432;-52
2021/01/06 01:59:17;;;;;;;0.30;0.00;;;4.30;99.90;;;;;;4992948;28;20567;-51
2021/01/06 02:01:46;;;;;;;1.33;0.10;;;4.30;99.90;;;;;;4993392;28;20450;-54
2021/01/06 02:04:39;;;;;;;0.10;0.00;;;4.30;99.90;;;;;;4992704;28;20100;-52
2021/01/06 02:07:18;;;;;;;0.30;0.30;;;4.30;99.90;;;;;;4992780;28;20042;-55
2021/01/06 02:10:16;;;;;;;0.10;0.00;;;4.30;99.90;;;;;;4993052;28;20026;-58
2021/01/06 02:12:47;;;;;;;0.30;0.00;;;4.30;99.90;;;;;;4992248;28;20066;-56
2021/01/06 02:15:54;;;;;;;0.35;0.00;;;4.30;99.90;;;;;;4993057;28;20065;-54
2021/01/06 02:18:20;;;;;;;0.25;0.08;;;4.30;99.90;;;;;;4987072;28;20046;-59
2021/01/06 02:21:20;;;;;;;1.35;0.10;;;4.30;99.90;;;;;;4992774;28;20045;-50
2021/01/06 02:23:49;;;;;;;0.00;0.00;;;4.20;99.90;;;;;;4970344;28;20077;-51
2021/01/06 02:26:17;;;;;;;1.85;0.00;;;4.20;99.90;;;;;;4992784;28;20062;-50
2021/01/06 02:28:44;;;;;;;2.38;0.00;;;4.20;99.90;;;;;;4991424;28;20109;-55
2021/01/06 02:31:09;;;;;;;0.30;0.00;;;4.10;99.90;;;;;;4989736;28;20118;-51
2021/01/06 02:33:37;;;;;;;0.00;0.00;;;4.10;99.90;;;;;;4991142;28;20128;-46
2021/01/06 02:36:04;;;;;;;0.00;0.00;;;4.10;99.90;;;;;;4992547;28;20033;-50
2021/01/06 02:38:30;;;;;;;3.50;0.00;;;4.10;99.90;;;;;;4991093;28;20402;-56
2021/01/06 02:40:57;;;;;;;0.30;0.05;;;4.10;99.90;;;;;;4987180;28;20478;-51
2021/01/06 02:43:25;;;;;;;0.00;0.00;;;4.10;99.90;;;;;;4990566;28;20038;-56
2021/01/06 02:45:51;;;;;;;0.10;0.00;;;4.10;99.90;;;;;;4991115;28;20186;-56
2021/01/06 02:48:18;;;;;;;0.77;0.00;;;4.10;99.90;;;;;;4989971;28;20588;-53
2021/01/06 02:50:46;;;;;;;0.28;0.00;;;4.10;99.90;;;;;;4991906;28;20153;-51
2021/01/06 02:53:24;;;;;;;0.10;0.00;;;4.10;99.90;;;;;;4990907;28;20034;-56
2021/01/06 02:55:52;;;;;;;0.00;0.00;;;4.20;99.90;;;;;;4992024;28;20034;-51
2021/01/06 02:58:22;;;;;;;0.00;0.00;;;4.20;99.90;;;;;;4989702;28;20038;-54
2021/01/06 03:00:50;;;;;;;0.50;0.13;;;4.20;99.90;;;;;;4990648;28;20038;-47
2021/01/06 03:03:18;;;;;;;0.35;0.00;;;4.10;99.90;;;;;;4989210;28;20185;-51
2021/01/06 03:06:00;;;;;;;0.05;0.00;;;4.10;99.90;;;;;;4991778;28;20083;-52
2021/01/06 03:08:26;;;;;;;0.20;0.00;;;4.10;99.90;;;;;;4990576;28;20042;-60
2021/01/06 03:10:51;;;;;;;0.75;0.00;;;4.20;99.90;;;;;;4991590;28;20105;-60
2021/01/06 03:13:17;;;;;;;0.20;0.00;;;4.10;99.90;;;;;;4990401;28;20037;-55
2021/01/06 03:15:43;;;;;;;1.45;0.00;;;4.20;99.90;;;;;;4989707;28;20109;-57
2021/01/06 03:18:09;;;;;;;2.83;0.00;;;4.10;99.90;;;;;;4987877;28;20041;-58
2021/01/06 03:20:39;;;;;;;0.47;0.10;;;4.00;99.90;;;;;;4989897;28;20050;-56
2021/01/06 03:23:20;;;;;;;0.00;0.00;;;4.00;99.90;;;;;;4989615;28;20517;-53
2021/01/06 03:25:46;;;;;;;0.10;0.00;;;4.00;99.90;;;;;;4991646;28;20414;-55
2021/01/06 03:28:14;;;;;;;0.15;0.00;;;4.00;99.90;;;;;;4989759;28;20033;-56
2021/01/06 03:30:42;;;;;;;1.10;0.10;;;4.00;99.90;;;;;;4988250;28;20031;-56
2021/01/06 03:36:04;;;;;;;1.08;0.35;;;4.00;99.90;;;;;;5172525;23;20117;-53
2021/01/06 03:38:37;;;;;;;0.45;0.00;;;4.00;99.90;;;;;;4990221;28;20058;-59
2021/01/06 03:41:05;;;;;;;0.10;0.00;;;3.90;99.90;;;;;;4990954;28;20037;-55
2021/01/06 03:43:35;;;;;;;0.32;0.00;;;3.90;99.90;;;;;;4991139;28;20082;-58
2021/01/06 03:46:05;;;;;;;0.25;0.00;;;4.00;99.90;;;;;;4985982;28;20411;-54
2021/01/06 03:49:06;;;;;;;0.13;0.00;;;4.00;99.90;;;;;;4988845;28;20049;-53
2021/01/06 03:51:42;;;;;;;0.22;0.00;;;4.00;99.90;;;;;;4949336;29;20086;-58
2021/01/06 03:54:49;;;;;;;0.00;0.00;;;4.00;99.90;;;;;;4949665;29;20544;-57
2021/01/06 03:57:15;;;;;;;0.63;0.00;;;4.00;99.90;;;;;;4949484;29;20047;-55
2021/01/06 03:59:45;;;;;;;0.15;0.00;;;4.00;99.90;;;;;;4948320;29;20066;-54
2021/01/06 04:02:21;;;;;;;0.40;0.03;;;4.00;99.90;;;;;;4944955;28;20063;-54
2021/01/06 04:05:06;;;;;;;0.00;0.00;;;4.00;99.90;;;;;;4948092;29;20055;-55
2021/01/06 04:07:54;;;;;;;0.55;0.00;;;4.00;99.90;;;;;;4949278;29;20043;-53
2021/01/06 04:10:24;;;;;;;0.10;0.00;;;4.00;99.90;;;;;;4947324;28;20585;-57
2021/01/06 04:12:50;;;;;;;0.15;0.00;;;4.00;99.90;;;;;;4949250;28;20526;-53
2021/01/06 04:15:17;;;;;;;0.63;0.00;;;4.00;99.90;;;;;;4946254;29;20125;-53
2021/01/06 04:17:46;;;;;;;0.20;0.00;;;4.00;99.90;;;;;;4948880;29;20166;-59
2021/01/06 04:20:14;;;;;;;0.75;0.00;;;4.00;99.90;;;;;;4947856;29;20048;-54
2021/01/06 04:22:55;;;;;;;1.75;0.00;;;4.00;99.90;;;;;;4948983;28;20031;-50
2021/01/06 04:25:37;;;;;;;0.10;0.00;;;4.00;99.90;;;;;;4947876;29;20050;-53
2021/01/06 04:28:05;;;;;;;0.08;0.00;;;4.00;99.90;;;;;;4985731;28;20545;-56
2021/01/06 04:30:41;;;;;;;0.10;0.00;;;3.90;99.90;;;;;;4987799;28;20042;-50
2021/01/06 04:33:32;;;;;;;0.20;0.00;;;3.90;99.90;;;;;;4970962;28;20142;-56
2021/01/06 04:36:01;;;;;;;0.50;0.10;;;3.90;99.90;;;;;;4978676;28;20086;-56
2021/01/06 04:38:30;;;;;;;0.98;0.10;;;3.90;99.90;;;;;;4990127;28;20033;-59
2021/01/06 04:40:59;;;;;;;0.52;0.00;;;3.80;99.90;;;;;;4989468;28;20278;-55
2021/01/06 04:43:29;;;;;;;0.28;0.00;;;3.60;99.90;;;;;;4990367;28;20127;-60
2021/01/06 04:46:25;;;;;;;0.00;0.00;;;3.50;99.90;;;;;;4987666;28;20027;-55
2021/01/06 04:49:17;;;;;;;0.10;0.00;;;3.50;99.90;;;;;;4989980;28;20038;-50
2021/01/06 04:51:54;;;;;;;1.55;0.10;;;3.50;99.90;;;;;;4989880;28;20045;-56
2021/01/06 04:54:19;;;;;;;;;;;3.50;99.90;;;;;;4989289;28;20109;-57
2021/01/06 04:57:07;;;;;;;0.30;0.00;;;;;;;;;;4989774;28;20036;-55
2021/01/06 04:59:55;;;;;;;1.98;0.20;;;3.50;99.90;;;;;;4989004;28;20041;-62
2021/01/06 05:02:39;;;;;;;0.77;0.20;;;3.60;99.90;;;;;;4988049;28;20042;-53
2021/01/06 05:05:34;;;;;;;0.30;0.10;;;3.50;99.90;;;;;;4987320;28;20042;-49
2021/01/06 05:08:17;;;;;;;2.30;0.10;;;3.50;99.90;;;;;;4969793;28;20042;-62
2021/01/06 05:10:51;;;;;;;0.70;0.10;;;3.40;99.90;;;;;;4988892;28;20034;-54
2021/01/06 05:13:31;;;;;;;0.90;0.20;;;3.40;99.90;;;;;;4989779;28;20060;-52
2021/01/06 05:16:04;;;;;;;0.30;0.10;;;3.40;99.90;;;;;;4986508;28;20034;-57
2021/01/06 05:18:31;;;;;;;0.55;0.10;;;3.50;99.90;;;;;;4989728;28;20030;-56
2021/01/06 05:20:57;;;;;;;0.20;0.00;;;3.40;99.90;;;;;;4986817;28;20042;-58
2021/01/06 05:23:27;;;;;;;0.20;0.00;;;3.40;99.90;;;;;;4989759;28;20053;-53
2021/01/06 05:25:55;;;;;;;0.73;0.00;;;3.40;99.90;;;;;;4988206;28;20092;-57
2021/01/06 05:28:22;;;;;;;0.80;0.10;;;3.40;99.90;;;;;;4989466;28;20512;-53
2021/01/06 05:30:53;;;;;;;0.50;0.10;;;3.40;99.90;;;;;;4986764;28;20042;-57
2021/01/06 05:33:34;;;;;;;1.00;0.25;;;3.50;99.90;;;;;;4989389;28;20117;-56
2021/01/06 05:36:00;;;;;;;2.35;0.20;;;3.40;99.90;;;;;;4987347;28;20117;-59
2021/01/06 05:38:26;;;;;;;0.68;0.30;;;3.40;99.90;;;;;;4989667;28;20042;-55
2021/01/06 05:40:51;;;;;;;0.15;0.00;;;3.40;99.90;;;;;;4988013;28;20049;-53
2021/01/06 05:43:17;;;;;;;2.08;0.10;;;3.30;99.90;;;;;;4989337;28;20097;-55
2021/01/06 05:45:52;;;;;;;2.55;0.10;;;3.30;99.90;;;;;;4986873;28;20494;-61
2021/01/06 05:48:22;;;;;;;1.93;0.10;;;3.20;99.90;;;;;;4970241;28;20045;-56
2021/01/06 05:51:06;;;;;;;0.70;0.10;;;3.20;99.90;;;;;;4981694;28;20046;-57
2021/01/06 05:53:43;;;;;;;1.45;0.10;;;3.20;99.90;;;;;;4989240;28;20078;-62
2021/01/06 05:56:46;;;;;;;0.75;0.10;;;3.20;99.90;;;;;;4987714;28;20149;-55
2021/01/06 05:59:42;;;;;;;1.75;0.10;;;3.20;99.90;;;;;;4989401;28;20026;-58
2021/01/06 06:02:08;;;;;;;1.73;0.15;;;3.20;99.90;;;;;;4987591;28;20088;-53
2021/01/06 06:04:52;;;;;;;2.85;0.30;;;3.20;99.90;;;;;;4987551;28;20038;-61
2021/01/06 06:07:21;;;;;;;2.70;0.50;;;3.20;99.90;;;;;;4986764;28;20034;-59
2021/01/06 06:10:00;;;;;;;1.67;0.30;;;3.10;99.90;;;;;;4989404;28;20482;-61
2021/01/06 06:12:35;;;;;;;1.38;0.30;;;3.10;99.90;;;;;;4987991;28;20497;-60
2021/01/06 06:15:15;;;;;;;0.68;0.20;;;3.10;99.90;;;;;;4986729;28;20077;-58
2021/01/06 06:18:08;;;;;;;1.55;0.20;;;3.00;99.90;;;;;;4986275;28;20034;-59
2021/01/06 06:20:55;;;;;;;0.82;0.20;;;3.00;99.90;;;;;;4987984;28;20058;-54
2021/01/06 06:23:43;;;;;;;1.50;0.30;;;3.00;99.90;;;;;;4970017;28;20063;-60
2021/01/06 06:26:20;;;;;;;2.80;0.30;;;3.00;99.90;;;;;;4974027;28;20121;-54
2021/01/06 06:29:11;;;;;;;1.52;0.20;;;3.00;99.90;;;;;;4987659;28;20038;-59
2021/01/06 06:31:38;;;;;;;2.22;0.30;;;2.90;99.90;;;;;;4987946;28;20035;-58
2021/01/06 06:34:09;;;;;;;2.50;0.20;;;3.00;99.90;;;;;;4991293;28;20037;-59
2021/01/06 06:36:46;;;;;;;3.65;0.30;;;3.00;99.90;;;;;;4990315;28;20206;-58
2021/01/06 06:39:42;;;;;;;2.03;0.40;;;3.00;99.90;;;;;;4990216;28;20037;-56
2021/01/06 06:42:26;;;;;;;4.20;0.20;;;2.90;99.90;;;;;;4992367;28;20202;-50
2021/01/06 06:44:52;;;;;;;5.97;0.43;;;3.00;99.90;;;;;;4990980;28;20050;-57
2021/01/06 06:47:27;;;;;;;3.78;0.60;;;3.10;99.90;;;;;;4991043;28;20069;-59
2021/01/06 06:50:10;;;;;;;1.25;0.20;;;3.10;99.90;;;;;;4986601;28;20042;-59
2021/01/06 06:53:13;;;;;;;0.85;0.30;;;3.10;99.90;;;;;;4991085;28;20371;-56
2021/01/06 06:55:44;;;;;;;2.15;0.55;;;3.10;99.90;;;;;;4955357;28;20922;-61
2021/01/06 06:58:31;;;;;;;1.05;0.50;;;3.10;99.90;;;;;;4991065;28;20427;-51
2021/01/06 07:00:58;;;;;;;1.33;0.50;;;3.10;99.90;;;;;;4987743;28;20034;-51
2021/01/06 07:03:28;;;;;;;3.80;0.60;;;3.10;99.90;;;;;;4991698;28;20132;-53
2021/01/06 07:06:00;;;;;;;6.05;0.50;;;3.10;99.90;;;;;;4990578;28;20388;-56
2021/01/06 07:08:50;;;;;;;2.70;0.70;;;3.10;99.90;;;;;;4991676;28;20049;-58
2021/01/06 07:11:41;;;;;;;3.22;0.60;;;3.10;99.90;;;;;;4990186;28;20062;-54
2021/01/06 07:14:30;;;;;;;4.32;0.57;;;3.20;99.90;;;;;;4991924;28;20461;-62
2021/01/06 07:17:12;;;;;;;6.22;1.40;;;3.20;99.90;;;;;;4990145;28;20081;-55
2021/01/06 07:19:50;;;;;;;5.22;1.63;;;3.20;99.90;;;;;;4991997;28;20133;-58
2021/01/06 07:22:19;;;;;;;3.03;0.68;;;3.20;99.90;;;;;;4988406;28;20045;-60
2021/01/06 07:25:01;;;;;;;2.25;0.55;;;3.20;99.90;;;;;;4990093;28;20042;-50
2021/01/06 07:27:32;;;;;;;6.15;0.70;;;3.20;99.90;;;;;;4991832;28;20045;-55
2021/01/06 07:29:58;;;;;;;3.97;0.70;;;3.30;99.90;;;;;;4989242;28;20046;-58
2021/01/06 07:32:42;;;;;;;5.50;0.60;;;3.30;99.90;;;;;;4990404;28;20438;-56
2021/01/06 07:35:21;;;;;;;3.10;0.50;;;3.30;99.90;;;;;;4990466;28;20042;-55
2021/01/06 07:38:06;;;;;;;2.75;0.70;;;3.30;99.90;;;;;;4989849;28;20061;-57
2021/01/06 07:40:40;;;;;;;5.22;1.17;;;3.30;99.90;;;;;;4991010;28;20161;-58
2021/01/06 07:43:19;;;;;;;5.35;0.70;;;3.40;99.90;;;;;;4990222;28;20038;-55
2021/01/06 07:45:59;;;;;;;6.45;1.02;;;3.40;99.90;;;;;;4989692;28;20038;-57
2021/01/06 07:48:43;;;;;;;2.92;0.52;;;3.40;99.90;;;;;;4991057;28;20467;-52
2021/01/06 07:51:53;;;;;;;2.22;0.63;;;3.40;99.90;;;;;;4989958;28;20038;-52
2021/01/06 07:54:33;;;;;;;3.95;1.00;;;3.40;99.90;;;;;;4979177;28;20042;-50
2021/01/06 07:57:12;;;;;;;4.07;1.30;;;3.50;99.90;;;;;;4989373;28;20037;-55
2021/01/06 07:59:59;;;;;;;4.22;1.75;;;3.50;99.90;;;;;;4990146;28;20494;-60
2021/01/06 08:03:14;;;;;;;7.60;2.45;;;3.60;99.90;;;;;;4989140;28;20512;-57
2021/01/06 08:05:34;;;;;;;;;;;3.60;99.90;;;;;;4988529;28;20073;-59
2021/01/06 08:08:15;;;;;;;7.45;2.92;;;3.70;99.90;;;;;;4990585;28;19910;-55
2021/01/06 08:10:43;;;;;;;4.85;1.42;;;3.70;99.90;;;;;;4988991;28;20483;-57
2021/01/06 08:13:14;;;;;;;8.68;2.30;;;3.70;99.90;;;;;;4989400;28;20530;-58
2021/01/06 08:15:42;;;;;;;8.65;2.60;;;3.70;99.90;;;;;;4990286;28;20397;-55
2021/01/06 08:18:19;;;;;;;5.95;2.60;;;3.70;99.90;;;;;;4989244;28;20182;-50
2021/01/06 08:20:51;;;;;;;4.25;1.55;;;3.70;99.90;;;;;;4987709;28;20125;-58
2021/01/06 08:23:19;;;;;;;4.38;1.40;;;3.70;99.90;;;;;;4988099;28;20050;-59
2021/01/06 08:25:56;;;;;;;7.90;1.65;;;3.70;99.90;;;;;;4988903;28;20565;-54
2021/01/06 08:28:28;;;;;;;5.97;2.17;;;3.70;99.90;;;;;;4987156;28;20513;-60
2021/01/06 08:31:27;;;;;;;8.40;2.05;;;3.70;99.90;;;;;;4988871;28;20022;-59
2021/01/06 08:33:57;;;;;;;6.95;1.67;;;3.70;99.90;;;;;;4982083;28;20034;-56
2021/01/06 08:36:38;;;;;;;6.15;1.85;;;3.70;99.90;;;;;;4989165;28;20050;-62
2021/01/06 08:39:17;;;;;;;7.95;2.58;;;3.70;99.90;;;;;;4990045;28;20042;-57
2021/01/06 08:41:45;;;;;;;6.65;1.77;;;3.70;99.90;;;;;;4989050;28;20358;-54
2021/01/06 08:44:32;;;;;;;5.88;1.83;;;3.80;99.90;;;;;;4987740;28;20133;-54
2021/01/06 08:47:01;;;;;;;5.25;1.80;;;3.80;99.90;;;;;;4989715;28;20067;-58
2021/01/06 08:49:34;;;;;;;4.00;0.88;;;3.80;99.90;;;;;;4988265;28;20041;-56
2021/01/06 08:52:22;;;;;;;3.47;0.90;;;3.90;99.90;;;;;;4988704;28;20062;-51
2021/01/06 08:55:05;;;;;;;5.47;0.95;;;3.90;99.90;;;;;;4988450;28;20393;-56
2021/01/06 08:57:37;;;;;;;4.65;0.95;;;3.90;99.90;;;;;;4987880;28;20034;-60
2021/01/06 09:00:32;;;;;;;2.92;1.27;;;4.00;99.90;;;;;;4988731;28;20034;-56
2021/01/06 09:03:27;;;;;;;6.63;1.45;;;4.00;99.90;;;;;;4987251;28;20128;-56
2021/01/06 09:06:16;;;;;;;3.55;1.05;;;4.00;99.90;;;;;;4989583;28;20045;-57
2021/01/06 09:08:49;;;;;;;3.58;1.05;;;4.10;99.90;;;;;;4987500;28;20042;-61
2021/01/06 09:11:26;;;;;;;2.53;0.75;;;4.10;99.90;;;;;;4989923;28;20041;-59
2021/01/06 09:14:02;;;;;;;3.75;1.13;;;4.10;99.90;;;;;;4985293;28;20483;-54
2021/01/06 09:16:46;;;;;;;;;;;4.00;99.90;;;;;;4970394;28;20038;-57
2021/01/06 09:19:11;;;;;;;4.60;1.00;;;4.00;99.90;;;;;;4970025;28;19972;-63
2021/01/06 09:21:39;;;;;;;3.45;1.42;;;4.10;99.90;;;;;;4969841;28;20042;-59
2021/01/06 09:24:32;;;;;;;5.28;1.45;;;4.10;99.90;;;;;;4969801;28;20030;-57
2021/01/06 09:27:05;;;;;;;5.45;2.10;;;4.10;99.90;;;;;;4969779;28;20045;-56
2021/01/06 09:29:39;;;;;;;8.88;2.72;;;4.10;99.90;;;;;;4970022;28;20445;-56
2021/01/06 09:32:18;;;;;;;5.75;2.35;;;4.10;99.90;;;;;;4970011;28;20380;-59
2021/01/06 09:34:47;;;;;;;5.13;2.08;;;4.20;99.90;;;;;;4969723;28;20106;-49
2021/01/06 09:37:26;;;;;;;6.22;2.20;;;4.20;99.90;;;;;;4969990;28;20034;-49
2021/01/06 09:39:55;;;;;;;5.20;2.20;;;4.20;99.90;;;;;;4969895;28;20201;-55
2021/01/06 09:42:21;;;;;;;7.65;2.38;;;4.20;99.90;;;;;;4969936;28;20065;-56
2021/01/06 09:44:49;;;;;;;2.40;1.48;;;4.30;99.90;;;;;;4970325;28;20093;-57
2021/01/06 09:47:33;;;;;;;3.95;1.20;;;4.30;99.90;;;;;;4986527;28;20073;-57
2021/01/06 09:50:03;;;;;;;5.25;1.20;;;4.30;99.90;;;;;;4988659;28;20802;-53
2021/01/06 09:52:36;;;;;;;7.90;1.33;;;4.30;99.90;;;;;;4988031;28;20042;-56
2021/01/06 09:55:05;;;;;;;4.68;1.58;;;4.30;99.90;;;;;;4989069;28;20481;-61
2021/01/06 09:57:33;;;;;;;5.82;1.52;;;4.30;99.90;;;;;;4984152;28;20410;-63
2021/01/06 10:00:27;;;;;;;3.17;1.23;;;4.30;99.90;;;;;;4988692;28;20042;-52
2021/01/06 10:02:53;;;;;;;3.05;1.10;;;4.30;99.90;;;;;;4984780;28;20194;-53
2021/01/06 10:05:45;;;;;;;4.38;1.55;;;4.30;99.90;;;;;;4987318;28;20052;-58
2021/01/06 10:08:25;;;;;;;5.90;2.17;;;4.30;99.90;;;;;;4990898;28;20038;-55
2021/01/06 10:10:58;;;;;;;6.93;1.92;;;4.30;99.90;;;;;;4992317;28;20046;-57
2021/01/06 10:13:39;;;;;;;8.02;1.40;;;4.30;99.90;;;;;;4992891;28;20157;-57
2021/01/06 10:16:31;;;;;;;5.00;2.10;;;4.40;99.90;;;;;;4992726;28;20026;-56
2021/01/06 10:18:56;;;;;;;8.13;1.92;;;4.50;99.90;;;;;;4992104;28;20395;-58
2021/01/06 10:21:31;;;;;;;5.75;1.25;;;4.50;99.90;;;;;;4991663;28;20034;-54
2021/01/06 10:24:19;;;;;;;3.65;1.58;;;4.50;99.90;;;;;;4990818;28;20045;-58
2021/01/06 10:27:12;;;;;;;4.75;1.38;;;4.50;99.90;;;;;;5002561;28;20041;-47
2021/01/06 10:29:45;;;;;;;5.38;1.42;;;4.60;99.90;;;;;;4991121;28;20070;-52
2021/01/06 10:32:11;;;;;;;6.47;1.80;;;4.60;99.90;;;;;;4989049;28;20449;-52
2021/01/06 10:34:41;;;;;;;7.90;1.92;;;4.80;99.90;;;;;;4990589;28;20030;-47
2021/01/06 10:37:25;;;;;;;3.75;1.65;;;4.80;99.90;;;;;;4983569;28;20089;-51
2021/01/06 10:40:11;;;;;;;5.80;2.53;;;4.90;99.90;;;;;;4990397;28;20045;-61
2021/01/06 10:42:37;;;;;;;6.03;2.53;;;5.00;99.90;;;;;;4985972;28;20041;-57
2021/01/06 10:45:32;;;;;;;10.27;2.55;;;5.00;99.90;;;;;;4990669;28;20050;-54
2021/01/06 10:47:58;;;;;;;6.97;3.00;;;5.10;99.90;;;;;;4987980;28;20395;-59
2021/01/06 10:50:23;;;;;;;9.38;1.55;;;5.20;99.90;;;;;;4988490;28;20546;-62
2021/01/06 10:53:20;;;;;;;5.63;1.23;;;5.40;99.90;;;;;;4990822;28;20030;-54
2021/01/06 10:55:53;;;;;;;5.13;3.05;;;5.50;99.90;;;;;;4991789;28;20126;-57
2021/01/06 10:58:32;;;;;;;6.25;2.53;;;5.50;99.90;;;;;;4990087;28;20057;-56
2021/01/06 11:00:58;;;;;;;5.88;1.58;;;5.50;99.90;;;;;;4988907;28;20457;-56
2021/01/06 11:03:51;;;;;;;3.28;1.33;;;5.30;99.90;;;;;;4982012;28;20039;-53
2021/01/06 11:06:33;;;;;;;6.47;2.20;;;5.20;99.90;;;;;;4996388;28;20045;-54
2021/01/06 11:09:32;;;;;;;5.55;2.88;;;5.20;99.90;;;;;;4983291;28;20094;-55
2021/01/06 11:12:29;;;;;;;4.97;1.92;;;5.10;99.90;;;;;;4986027;28;20410;-51
2021/01/06 11:15:15;;;;;;;4.13;1.60;;;5.10;99.90;;;;;;4990405;28;20033;-54
2021/01/06 11:17:44;;;;;;;4.07;1.58;;;5.10;99.90;;;;;;4989546;28;20041;-52
2021/01/06 11:20:34;;;;;;;5.35;1.90;;;5.10;99.90;;;;;;4989036;28;20108;-54
2021/01/06 11:23:35;;;;;;;9.90;2.30;;;5.10;99.90;;;;;;4988922;28;20132;-52
2021/01/06 11:26:30;;;;;;;7.75;2.00;;;5.00;99.90;;;;;;4981840;28;20474;-56
2021/01/06 11:29:05;;;;;;;5.60;1.60;;;4.90;99.90;;;;;;5003600;28;20042;-51
2021/01/06 11:31:36;;;;;;;6.85;1.90;;;4.90;99.90;;;;;;4991107;28;20034;-54
2021/01/06 11:34:07;;;;;;;7.05;2.17;;;4.90;99.90;;;;;;4991294;28;20033;-58
2021/01/06 11:36:51;;;;;;;8.00;2.20;;;5.00;99.90;;;;;;4990153;28;20485;-54
2021/01/06 11:39:36;;;;;;;15.85;5.00;;;4.90;99.90;;;;;;4991901;28;20030;-57
2021/01/06 11:42:13;;;;;;;8.30;2.63;;;4.90;99.90;;;;;;4990428;28;20562;-56
2021/01/06 11:45:15;;;;;;;8.73;3.25;;;4.90;99.90;;;;;;4990947;28;20438;-48
2021/01/06 11:47:52;;;;;;;5.22;1.77;;;4.90;99.90;;;;;;4990340;28;20114;-51
2021/01/06 11:50:41;;;;;;;5.00;2.30;;;4.90;99.90;;;;;;4989009;28;20038;-52
2021/01/06 11:53:08;;;;;;;4.25;1.70;;;4.90;99.90;;;;;;4990054;28;20030;-57
2021/01/06 11:56:03;;;;;;;7.85;3.35;;;4.90;99.90;;;;;;4988197;28;20043;-54
2021/01/06 11:58:40;;;;;;;8.05;3.30;;;4.80;99.90;;;;;;4968625;28;20049;-56
2021/01/06 12:01:41;;;;;;;4.72;2.35;;;4.80;99.90;;;;;;4987043;28;20034;-50
2021/01/06 12:04:35;;;;;;;4.25;2.03;;;4.80;99.90;;;;;;4990781;28;20556;-50
2021/01/06 12:07:12;;;;;;;2.83;1.00;;;4.90;99.90;;;;;;4990347;28;20041;-56
2021/01/06 12:10:02;;;;;;;2.83;1.13;;;4.90;99.90;;;;;;4979752;28;20038;-52
2021/01/06 12:12:54;;;;;;;2.00;0.60;;;5.00;99.90;;;;;;4989360;28;20066;-54
2021/01/06 12:15:40;;;;;;;2.10;0.47;;;5.00;99.90;;;;;;4988880;28;20038;-54
2021/01/06 12:18:26;;;;;;;1.73;0.30;;;4.90;99.90;;;;;;4986933;28;20499;-56
2021/01/06 12:20:53;;;;;;;1.15;0.30;;;4.90;99.90;;;;;;4987163;28;20084;-58
2021/01/06 12:23:40;;;;;;;2.83;0.50;;;4.90;99.90;;;;;;4984025;28;20213;-55
2021/01/06 12:26:26;;;;;;;2.20;0.77;;;4.80;99.90;;;;;;4980194;28;20529;-52
2021/01/06 12:28:57;;;;;;;4.28;0.70;;;4.80;99.90;;;;;;4987790;28;20899;-57
2021/01/06 12:31:54;;;;;;;3.72;0.60;;;4.80;99.90;;;;;;4986773;28;20140;-56
2021/01/06 12:34:42;;;;;;;1.48;0.73;;;4.70;99.90;;;;;;4981695;28;20104;-51
2021/01/06 12:37:11;;;;;;;2.95;0.85;;;4.70;99.90;;;;;;4981223;28;20050;-57
2021/01/06 12:39:43;;;;;;;1.58;0.65;;;4.60;99.90;;;;;;4988976;28;20034;-56
2021/01/06 12:42:14;;;;;;;3.35;0.95;;;4.60;99.90;;;;;;4979277;28;20154;-53
2021/01/06 12:44:45;;;;;;;3.25;1.20;;;4.60;99.90;;;;;;4983243;28;20038;-53
2021/01/06 12:47:25;;;;;;;3.75;1.98;;;4.60;99.90;;;;;;4988836;28;20049;-54
2021/01/06 12:50:01;;;;;;;7.35;3.55;;;4.60;99.90;;;;;;4988513;28;20083;-54
2021/01/06 12:52:39;;;;;;;5.95;2.17;;;4.60;99.90;;;;;;4989342;28;20038;-52
2021/01/06 12:55:29;;;;;;;3.83;1.67;;;4.60;99.90;;;;;;4989196;28;20054;-54
2021/01/06 12:58:00;;;;;;;3.50;0.63;;;4.60;99.90;;;;;;4987014;28;20019;-52
2021/01/06 13:00:45;;;;;;;1.40;0.50;;;4.60;99.90;;;;;;4987012;28;20069;-52
2021/01/06 13:03:11;;;;;;;3.10;0.50;;;4.60;99.90;;;;;;4987910;28;20441;-57
2021/01/06 13:05:38;;;;;;;1.83;0.40;;;4.60;99.90;;;;;;4988009;28;20040;-58
2021/01/06 13:08:24;;;;;;;1.40;0.32;;;4.60;99.90;;;;;;4989627;28;20030;-53
2021/01/06 13:10:51;;;;;;;2.55;0.70;;;4.60;99.90;;;;;;4980086;28;20039;-56
2021/01/06 13:13:38;;;;;;;5.03;1.38;;;4.50;99.90;;;;;;4989439;28;20034;-57
2021/01/06 13:16:35;;;;;;;2.50;0.85;;;4.60;99.90;;;;;;4983613;28;20482;-56
2021/01/06 13:19:04;;;;;;;2.92;0.90;;;4.60;99.90;;;;;;4987666;28;20398;-54
2021/01/06 13:21:37;;;;;;;2.47;1.15;;;4.60;99.90;;;;;;4985086;28;20038;-52
2021/01/06 13:24:13;;;;;;;3.92;1.50;;;4.70;99.90;;;;;;4988976;28;20043;-52
2021/01/06 13:27:01;;;;;;;2.90;1.70;;;4.60;99.90;;;;;;4988641;28;20034;-52
2021/01/06 13:29:38;;;;;;;2.70;1.27;;;4.60;99.90;;;;;;4989409;28;20037;-56
2021/01/06 13:32:36;;;;;;;3.22;1.25;;;4.60;99.90;;;;;;4988388;28;20034;-57
2021/01/06 13:35:21;;;;;;;2.70;1.33;;;4.70;99.90;;;;;;4982322;28;20142;-56
2021/01/06 13:38:00;;;;;;;5.03;2.25;;;4.60;99.90;;;;;;4982849;28;20068;-57
2021/01/06 13:40:32;;;;;;;5.38;1.70;;;4.50;99.90;;;;;;4984770;28;20030;-56
2021/01/06 13:43:26;;;;;;;7.22;1.70;;;4.60;99.90;;;;;;4987412;28;20042;-56
2021/01/06 13:46:11;;;;;;;2.05;1.00;;;4.60;99.90;;;;;;4974328;28;20080;-59
2021/01/06 13:48:37;;;;;;;7.22;2.15;;;4.60;99.90;;;;;;4989017;28;20045;-54